createdAt,value
2022-08-28T00:00:59.351Z,15.44
2022-08-28T00:03:28.025Z,15.46
2022-08-28T00:06:00.405Z,15.50
2022-08-28T00:08:30.616Z,15.50
2022-08-28T00:10:59.506Z,15.53
2022-08-28T00:13:28.024Z,15.54
2022-08-28T00:16:01.132Z,15.54
2022-08-28T00:18:31.537Z,15.54
2022-08-28T00:21:01.416Z,15.52
2022-08-28T00:23:42.994Z,15.49
2022-08-28T00:26:32.239Z,15.45
2022-08-28T00:29:01.249Z,15.41
2022-08-28T00:31:29.876Z,15.40
2022-08-28T00:33:58.286Z,15.40
2022-08-28T00:36:27.222Z,15.40
2022-08-28T00:38:57.977Z,15.42
2022-08-28T00:41:31.396Z,15.41
2022-08-28T00:44:18.709Z,15.36
2022-08-28T00:46:50.063Z,15.32
2022-08-28T00:49:24.562Z,15.24
2022-08-28T00:52:09.060Z,15.19
2022-08-28T00:54:59.610Z,15.18
2022-08-28T00:57:38.139Z,15.18
2022-08-28T01:00:14.597Z,15.17
2022-08-28T01:02:44.192Z,15.17
2022-08-28T01:05:16.443Z,15.16
2022-08-28T01:07:46.817Z,15.13
2022-08-28T01:10:20.579Z,15.10
2022-08-28T01:12:50.793Z,15.09
2022-08-28T01:15:28.590Z,15.12
2022-08-28T01:18:12.323Z,15.13
2022-08-28T01:20:59.313Z,15.15
2022-08-28T01:24:00.632Z,15.12
2022-08-28T01:26:30.290Z,15.05
2022-08-28T01:29:00.100Z,15.05
2022-08-28T01:31:31.823Z,15.02
2022-08-28T01:34:01.200Z,15.02
2022-08-28T01:36:32.570Z,15.01
2022-08-28T01:39:20.866Z,15.02
2022-08-28T01:41:54.821Z,15.06
2022-08-28T01:44:27.303Z,15.11
2022-08-28T01:46:59.059Z,15.15
2022-08-28T01:49:29.627Z,15.21
2022-08-28T01:51:58.680Z,15.23
2022-08-28T01:54:28.969Z,15.23
2022-08-28T01:56:57.288Z,15.19
2022-08-28T01:59:25.653Z,15.15
2022-08-28T02:01:55.434Z,15.10
2022-08-28T02:04:31.814Z,15.03
2022-08-28T02:07:00.805Z,15.00
2022-08-28T02:09:29.253Z,14.99
2022-08-28T02:11:57.843Z,14.99
2022-08-28T02:14:26.209Z,14.99
2022-08-28T02:16:54.494Z,14.97
2022-08-28T02:19:23.097Z,14.97
2022-08-28T02:21:51.412Z,14.95
2022-08-28T02:24:20.406Z,14.91
2022-08-28T02:26:48.817Z,14.86
2022-08-28T02:29:17.385Z,14.81
2022-08-28T02:31:45.771Z,14.76
2022-08-28T02:34:14.193Z,14.74
2022-08-28T02:36:42.941Z,14.74
2022-08-28T02:39:11.845Z,14.73
2022-08-28T02:41:40.397Z,14.73
2022-08-28T02:44:09.590Z,14.74
2022-08-28T02:46:38.006Z,14.75
2022-08-28T02:49:06.357Z,14.79
2022-08-28T02:51:35.570Z,14.84
2022-08-28T02:54:04.022Z,14.87
2022-08-28T02:56:32.408Z,14.85
2022-08-28T02:59:00.699Z,14.84
2022-08-28T03:01:29.121Z,14.84
2022-08-28T03:03:57.602Z,14.85
2022-08-28T03:06:26.147Z,14.84
2022-08-28T03:08:54.532Z,14.82
2022-08-28T03:11:23.598Z,14.79
2022-08-28T03:13:52.401Z,14.78
2022-08-28T03:16:20.817Z,14.79
2022-08-28T03:18:49.160Z,14.79
2022-08-28T03:21:17.553Z,14.81
2022-08-28T03:23:45.879Z,14.83
2022-08-28T03:26:18.687Z,14.87
2022-08-28T03:28:50.876Z,14.90
2022-08-28T03:31:24.063Z,14.94
2022-08-28T03:33:54.127Z,14.94
2022-08-28T03:36:27.866Z,14.93
2022-08-28T03:39:01.908Z,14.96
2022-08-28T03:41:31.947Z,14.99
2022-08-28T03:44:01.806Z,15.04
2022-08-28T03:46:33.473Z,15.06
2022-08-28T03:49:04.674Z,15.10
2022-08-28T03:51:34.643Z,15.13
2022-08-28T03:54:05.858Z,15.12
2022-08-28T03:56:34.765Z,15.12
2022-08-28T03:59:05.484Z,15.12
2022-08-28T04:01:34.280Z,15.15
2022-08-28T04:04:02.969Z,15.19
2022-08-28T04:06:31.389Z,15.23
2022-08-28T04:09:00.054Z,15.28
2022-08-28T04:11:29.423Z,15.31
2022-08-28T04:13:58.143Z,15.33
2022-08-28T04:16:28.038Z,15.35
2022-08-28T04:18:58.311Z,15.40
2022-08-28T04:21:28.189Z,15.47
2022-08-28T04:23:56.563Z,15.54
2022-08-28T04:26:27.538Z,15.59
2022-08-28T04:28:56.257Z,15.67
2022-08-28T04:31:31.852Z,15.75
2022-08-28T04:34:07.392Z,15.87
2022-08-28T04:36:37.195Z,15.98
2022-08-28T04:39:08.855Z,16.10
2022-08-28T04:41:38.847Z,16.23
2022-08-28T04:44:09.447Z,16.38
2022-08-28T04:46:38.716Z,16.48
2022-08-28T04:49:07.559Z,16.59
2022-08-28T04:51:38.900Z,16.69
2022-08-28T04:54:14.008Z,16.80
2022-08-28T04:56:42.419Z,16.95
2022-08-28T04:59:11.909Z,17.10
2022-08-28T05:01:42.797Z,17.30
2022-08-28T05:04:13.030Z,17.47
2022-08-28T05:06:46.339Z,17.63
2022-08-28T05:09:18.383Z,17.76
2022-08-28T05:11:49.052Z,17.88
2022-08-28T05:14:17.478Z,18.01
2022-08-28T05:16:53.214Z,18.12
2022-08-28T05:19:23.090Z,18.23
2022-08-28T05:21:51.994Z,18.37
2022-08-28T05:24:22.088Z,18.56
2022-08-28T05:26:50.620Z,18.75
2022-08-28T05:29:18.970Z,19.00
2022-08-28T05:31:47.967Z,19.25
2022-08-28T05:34:17.020Z,19.48
2022-08-28T05:36:45.406Z,19.69
2022-08-28T05:39:14.061Z,19.88
2022-08-28T05:41:46.567Z,20.06
2022-08-28T05:44:17.522Z,20.25
2022-08-28T05:46:48.399Z,20.39
2022-08-28T05:49:19.700Z,20.56
2022-08-28T05:51:50.246Z,20.71
2022-08-28T05:54:18.843Z,20.84
2022-08-28T05:56:47.819Z,21.00
2022-08-28T05:59:17.731Z,21.11
2022-08-28T06:01:50.402Z,21.16
2022-08-28T06:04:26.014Z,21.19
2022-08-28T06:06:55.284Z,21.22
2022-08-28T06:09:30.103Z,21.29
2022-08-28T06:12:02.912Z,21.34
2022-08-28T06:14:32.651Z,21.43
2022-08-28T06:17:02.393Z,21.54
2022-08-28T06:19:34.388Z,21.63
2022-08-28T06:22:07.425Z,21.72
2022-08-28T06:24:37.906Z,21.83
2022-08-28T06:27:06.322Z,21.92
2022-08-28T06:29:34.735Z,22.02
2022-08-28T06:32:04.996Z,22.14
2022-08-28T06:34:33.740Z,22.24
2022-08-28T06:37:02.077Z,22.38
2022-08-28T06:39:30.403Z,22.50
2022-08-28T06:41:58.770Z,22.60
2022-08-28T06:44:28.107Z,22.70
2022-08-28T06:46:56.449Z,22.82
2022-08-28T06:49:25.364Z,22.93
2022-08-28T06:51:53.697Z,23.03
2022-08-28T06:54:23.659Z,23.12
2022-08-28T06:56:52.869Z,23.21
2022-08-28T06:59:21.562Z,23.32
2022-08-28T07:01:49.943Z,23.40
2022-08-28T07:04:18.467Z,23.49
2022-08-28T07:06:53.877Z,23.55
2022-08-28T07:09:24.584Z,23.63
2022-08-28T07:11:53.342Z,23.76
2022-08-28T07:14:21.657Z,23.86
2022-08-28T07:16:50.516Z,23.94
2022-08-28T07:19:20.493Z,24.03
2022-08-28T07:21:48.748Z,24.14
2022-08-28T07:24:18.703Z,24.24
2022-08-28T07:26:48.586Z,24.35
2022-08-28T07:29:18.525Z,24.48
2022-08-28T07:31:52.520Z,24.59
2022-08-28T07:34:27.188Z,24.70
2022-08-28T07:36:58.431Z,24.81
2022-08-28T07:39:26.834Z,24.96
2022-08-28T07:41:55.124Z,25.12
2022-08-28T07:44:42.170Z,25.23
2022-08-28T07:47:11.863Z,25.36
2022-08-28T07:49:40.816Z,25.53
2022-08-28T07:52:10.420Z,25.61
2022-08-28T07:54:40.827Z,25.71
2022-08-28T07:57:10.464Z,25.83
2022-08-28T07:59:40.944Z,25.92
2022-08-28T08:02:12.672Z,26.02
2022-08-28T08:04:41.639Z,26.14
2022-08-28T08:07:10.498Z,26.23
2022-08-28T08:09:42.372Z,26.30
2022-08-28T08:12:12.752Z,26.42
2022-08-28T08:14:42.974Z,26.47
2022-08-28T08:17:12.251Z,26.58
2022-08-28T08:19:41.070Z,26.67
2022-08-28T08:22:09.481Z,26.77
2022-08-28T08:24:37.779Z,26.89
2022-08-28T08:27:06.938Z,26.98
2022-08-28T08:29:37.859Z,27.02
2022-08-28T08:32:11.744Z,27.05
2022-08-28T08:34:49.477Z,27.15
2022-08-28T08:37:17.779Z,27.27
2022-08-28T08:39:46.095Z,27.28
2022-08-28T08:42:34.182Z,27.37
2022-08-28T08:45:04.443Z,27.50
2022-08-28T08:47:43.783Z,27.58
2022-08-28T08:50:21.404Z,27.70
2022-08-28T08:53:35.610Z,27.76
2022-08-28T08:56:06.439Z,27.87
2022-08-28T08:58:41.177Z,27.97
2022-08-28T09:01:25.509Z,28.08
2022-08-28T09:04:31.027Z,28.20
2022-08-28T09:07:16.479Z,28.25
2022-08-28T09:09:56.664Z,28.31
2022-08-28T09:12:26.264Z,28.50
2022-08-28T09:15:08.007Z,28.60
2022-08-28T09:18:18.976Z,28.67
2022-08-28T09:20:53.268Z,28.77
2022-08-28T09:23:24.077Z,28.90
2022-08-28T09:26:02.895Z,28.91
2022-08-28T09:28:36.355Z,28.97
2022-08-28T09:31:15.812Z,29.07
2022-08-28T09:33:52.176Z,29.10
2022-08-28T09:36:38.889Z,29.18
2022-08-28T09:39:17.777Z,29.34
2022-08-28T09:42:36.949Z,29.48
2022-08-28T09:45:21.506Z,29.66
2022-08-28T09:47:58.552Z,29.81
2022-08-28T09:50:36.064Z,29.95
2022-08-28T09:53:10.114Z,30.07
2022-08-28T09:56:11.835Z,30.05
2022-08-28T09:59:05.987Z,29.99
2022-08-28T10:02:01.173Z,30.17
2022-08-28T10:05:16.449Z,30.27
2022-08-28T10:07:54.949Z,30.48
2022-08-28T10:11:12.623Z,30.59
2022-08-28T10:14:05.342Z,30.63
2022-08-28T10:17:04.120Z,30.57
2022-08-28T10:19:59.418Z,30.72
2022-08-28T10:23:01.974Z,30.70
2022-08-28T10:25:43.920Z,30.92
2022-08-28T10:28:34.644Z,30.99
2022-08-28T10:31:48.376Z,31.09
2022-08-28T10:34:35.787Z,31.18
2022-08-28T10:37:28.514Z,31.30
2022-08-28T10:40:11.759Z,31.18
2022-08-28T10:42:48.810Z,31.34
2022-08-28T10:45:24.442Z,31.45
2022-08-28T10:48:20.038Z,31.57
2022-08-28T10:51:01.053Z,31.70
2022-08-28T10:53:49.190Z,31.85
2022-08-28T10:56:28.830Z,31.85
2022-08-28T10:58:59.975Z,32.03
2022-08-28T11:01:43.657Z,32.12
2022-08-28T11:04:25.730Z,32.19
2022-08-28T11:07:10.381Z,32.32
2022-08-28T11:09:48.903Z,32.24
2022-08-28T11:12:17.242Z,32.34
2022-08-28T11:14:51.838Z,32.20
2022-08-28T11:17:27.906Z,32.19
2022-08-28T11:20:22.924Z,32.51
2022-08-28T11:23:15.794Z,32.86
2022-08-28T11:25:59.376Z,33.05
2022-08-28T11:28:36.598Z,33.20
2022-08-28T11:31:05.232Z,33.55
2022-08-28T11:33:45.451Z,33.59
2022-08-28T11:36:22.221Z,33.57
2022-08-28T11:38:55.953Z,33.90
2022-08-28T11:41:32.468Z,33.90
2022-08-28T11:44:09.485Z,33.84
2022-08-28T11:46:47.735Z,33.58
2022-08-28T11:49:34.034Z,33.59
2022-08-28T11:52:23.749Z,33.78
2022-08-28T11:55:17.256Z,34.01
2022-08-28T12:01:07.227Z,33.97
2022-08-28T12:03:39.600Z,33.86
2022-08-28T12:06:09.201Z,34.25
2022-08-28T12:08:58.730Z,34.01
2022-08-28T12:11:43.009Z,34.47
2022-08-28T12:14:27.050Z,34.41
2022-08-28T12:17:01.367Z,34.67
2022-08-28T12:19:55.906Z,35.29
2022-08-28T12:22:40.444Z,35.70
2022-08-28T12:25:30.398Z,36.22
2022-08-28T12:28:06.293Z,36.48
2022-08-28T12:31:12.857Z,36.66
2022-08-28T12:34:09.327Z,36.51
2022-08-28T12:36:37.759Z,36.33
2022-08-28T12:39:06.188Z,36.00
2022-08-28T12:41:35.931Z,36.27
2022-08-28T12:44:04.842Z,36.61
2022-08-28T12:46:40.821Z,37.24
2022-08-28T12:49:37.913Z,37.55
2022-08-28T12:52:16.680Z,38.20
2022-08-28T12:54:48.278Z,38.06
2022-08-28T12:57:23.700Z,38.24
2022-08-28T13:00:06.619Z,38.41
2022-08-28T13:02:35.277Z,38.58
2022-08-28T13:05:11.801Z,38.70
2022-08-28T13:07:47.803Z,39.23
2022-08-28T13:10:36.874Z,38.48
2022-08-28T13:13:38.885Z,37.88
2022-08-28T13:16:11.215Z,37.67
2022-08-28T13:18:46.023Z,37.74
2022-08-28T13:21:33.166Z,37.83
2022-08-28T13:24:22.079Z,37.98
2022-08-28T13:27:21.601Z,38.39
2022-08-28T13:30:30.639Z,38.30
2022-08-28T13:33:18.369Z,37.86
2022-08-28T13:35:46.965Z,37.60
2022-08-28T13:38:19.194Z,37.81
2022-08-28T13:41:02.774Z,38.14
2022-08-28T13:43:47.187Z,38.41
2022-08-28T13:46:15.628Z,38.72
2022-08-28T13:48:44.005Z,38.96
2022-08-28T13:51:19.304Z,39.27
2022-08-28T13:53:50.681Z,38.51
2022-08-28T13:56:23.552Z,38.45
2022-08-28T13:58:57.303Z,38.05
2022-08-28T14:01:49.836Z,38.62
2022-08-28T14:04:18.357Z,39.29
2022-08-28T14:06:47.054Z,39.82
2022-08-28T14:09:17.819Z,40.09
2022-08-28T14:11:48.186Z,39.39
2022-08-28T14:14:17.120Z,39.74
2022-08-28T14:16:45.919Z,40.08
2022-08-28T14:19:14.411Z,40.47
2022-08-28T14:21:42.950Z,40.85
2022-08-28T14:24:12.301Z,41.08
2022-08-28T14:26:41.116Z,41.01
2022-08-28T14:29:12.303Z,40.39
2022-08-28T14:31:44.499Z,40.24
2022-08-28T14:34:18.953Z,40.53
2022-08-28T14:36:51.067Z,40.26
2022-08-28T14:39:19.522Z,39.77
2022-08-28T14:41:49.658Z,39.23
2022-08-28T14:44:19.617Z,39.30
2022-08-28T14:46:57.030Z,39.28
2022-08-28T14:49:28.400Z,39.10
2022-08-28T14:51:57.709Z,38.95
2022-08-28T14:54:27.059Z,39.27
2022-08-28T14:56:56.812Z,39.60
2022-08-28T14:59:29.301Z,39.72
2022-08-28T15:02:00.320Z,40.05
2022-08-28T15:04:34.882Z,40.28
2022-08-28T15:07:08.675Z,40.21
2022-08-28T15:09:41.142Z,39.78
2022-08-28T15:12:09.686Z,39.19
2022-08-28T15:14:38.213Z,38.64
2022-08-28T15:17:06.562Z,38.43
2022-08-28T15:19:34.967Z,38.54
2022-08-28T15:22:04.484Z,38.85
2022-08-28T15:24:34.614Z,39.05
2022-08-28T15:27:03.375Z,39.09
2022-08-28T15:29:31.852Z,39.07
2022-08-28T15:32:00.923Z,38.99
2022-08-28T15:34:29.862Z,39.00
2022-08-28T15:36:59.555Z,38.92
2022-08-28T15:39:47.777Z,38.72
2022-08-28T15:42:16.667Z,37.90
2022-08-28T15:44:45.064Z,37.75
2022-08-28T15:47:14.955Z,37.73
2022-08-28T15:49:48.701Z,37.58
2022-08-28T15:52:20.726Z,37.27
2022-08-28T15:54:49.803Z,37.01
2022-08-28T15:57:18.304Z,36.77
2022-08-28T15:59:49.741Z,36.52
2022-08-28T16:02:23.594Z,36.17
2022-08-28T16:04:53.799Z,35.85
2022-08-28T16:07:23.378Z,35.68
2022-08-28T16:09:52.564Z,35.41
2022-08-28T16:12:20.941Z,35.15
2022-08-28T16:14:50.887Z,34.45
2022-08-28T16:17:19.335Z,33.63
2022-08-28T16:19:49.457Z,33.06
2022-08-28T16:22:19.400Z,32.51
2022-08-28T16:24:47.821Z,32.04
2022-08-28T16:27:16.147Z,31.59
2022-08-28T16:29:45.960Z,31.13
2022-08-28T16:32:14.310Z,30.65
2022-08-28T16:34:44.650Z,30.20
2022-08-28T16:37:14.395Z,29.72
2022-08-28T16:39:48.056Z,29.26
2022-08-28T16:42:17.433Z,28.84
2022-08-28T16:44:46.289Z,28.44
2022-08-28T16:47:15.132Z,28.00
2022-08-28T16:49:43.694Z,27.55
2022-08-28T16:52:11.935Z,27.13
2022-08-28T16:54:46.086Z,26.75
2022-08-28T16:57:19.789Z,26.37
2022-08-28T16:59:48.680Z,26.02
2022-08-28T17:02:26.528Z,25.71
2022-08-28T17:04:58.386Z,25.41
2022-08-28T17:07:26.837Z,25.16
2022-08-28T17:09:55.519Z,24.90
2022-08-28T17:12:23.920Z,24.69
2022-08-28T17:14:52.271Z,24.52
2022-08-28T17:17:20.834Z,24.39
2022-08-28T17:19:49.193Z,24.28
2022-08-28T17:22:32.722Z,24.15
2022-08-28T17:25:15.046Z,24.02
2022-08-28T17:27:43.382Z,24.01
2022-08-28T17:30:13.129Z,24.04
2022-08-28T17:32:41.612Z,24.10
2022-08-28T17:35:09.953Z,24.16
2022-08-28T17:37:41.310Z,24.20
2022-08-28T17:40:13.694Z,24.26
2022-08-28T17:42:45.713Z,24.33
2022-08-28T17:45:15.608Z,24.39
2022-08-28T17:47:43.939Z,24.45
2022-08-28T17:50:12.566Z,24.50
2022-08-28T17:52:40.966Z,24.53
2022-08-28T17:55:10.096Z,24.57
2022-08-28T17:57:39.207Z,24.58
2022-08-28T18:00:12.075Z,24.61
2022-08-28T18:02:40.765Z,24.62
2022-08-28T18:05:13.574Z,24.61
2022-08-28T18:07:42.148Z,24.60
2022-08-28T18:10:11.922Z,24.58
2022-08-28T18:12:41.985Z,24.56
2022-08-28T18:15:12.994Z,24.49
2022-08-28T18:17:43.303Z,24.37
2022-08-28T18:20:12.421Z,24.25
2022-08-28T18:22:40.801Z,24.15
2022-08-28T18:25:30.430Z,24.04
2022-08-28T18:27:58.933Z,23.89
2022-08-28T18:30:27.696Z,23.73
2022-08-28T18:33:01.515Z,23.62
2022-08-28T18:35:32.311Z,23.50
2022-08-28T18:38:01.808Z,23.42
2022-08-28T18:40:31.038Z,23.34
2022-08-28T18:42:59.905Z,23.31
2022-08-28T18:45:29.777Z,23.35
2022-08-28T18:48:00.347Z,23.36
2022-08-28T18:50:31.570Z,23.34
2022-08-28T18:53:00.832Z,23.36
2022-08-28T18:55:31.998Z,23.38
2022-08-28T18:58:02.522Z,23.37
2022-08-28T19:00:31.740Z,23.40
2022-08-28T19:03:00.271Z,23.45
2022-08-28T19:05:29.308Z,23.49
2022-08-28T19:07:58.890Z,23.54
2022-08-28T19:10:34.050Z,23.56
2022-08-28T19:13:05.510Z,23.48
2022-08-28T19:15:34.918Z,23.41
2022-08-28T19:18:05.297Z,23.33
2022-08-28T19:20:34.314Z,23.18
2022-08-28T19:23:02.598Z,22.94
2022-08-28T19:25:31.384Z,22.64
2022-08-28T19:28:01.808Z,22.37
2022-08-28T19:30:33.648Z,22.14
2022-08-28T19:33:05.672Z,21.94
2022-08-28T19:35:34.042Z,21.76
2022-08-28T19:38:02.514Z,21.61
2022-08-28T19:40:31.779Z,21.46
2022-08-28T19:43:00.810Z,21.32
2022-08-28T19:45:29.783Z,21.19
2022-08-28T19:47:59.574Z,21.04
2022-08-28T19:50:27.897Z,20.91
2022-08-28T19:52:56.271Z,20.72
2022-08-28T19:55:28.167Z,20.61
2022-08-28T19:57:57.676Z,20.49
2022-08-28T20:00:33.097Z,20.38
2022-08-28T20:03:01.704Z,20.28
2022-08-28T20:05:30.116Z,20.16
2022-08-28T20:07:58.546Z,20.06
2022-08-28T20:10:27.648Z,19.97
2022-08-28T20:12:56.995Z,19.89
2022-08-28T20:15:25.600Z,19.81
2022-08-28T20:17:54.014Z,19.76
2022-08-28T20:20:26.739Z,19.74
2022-08-28T20:22:58.199Z,19.72
2022-08-28T20:25:27.659Z,19.70
2022-08-28T20:28:00.976Z,19.69
2022-08-28T20:30:30.846Z,19.68
2022-08-28T20:33:01.709Z,19.64
2022-08-28T20:35:30.170Z,19.62
2022-08-28T20:37:59.076Z,19.56
2022-08-28T20:40:27.451Z,19.44
2022-08-28T20:42:55.780Z,19.29
2022-08-28T20:45:24.301Z,19.15
2022-08-28T20:47:52.606Z,19.12
2022-08-28T20:50:21.067Z,19.10
2022-08-28T20:52:49.558Z,19.09
2022-08-28T20:55:18.428Z,19.08
2022-08-28T20:57:46.709Z,19.07
2022-08-28T21:00:15.105Z,19.05
2022-08-28T21:02:43.434Z,18.99
2022-08-28T21:05:11.979Z,18.92
2022-08-28T21:07:40.344Z,18.85
2022-08-28T21:10:08.952Z,18.81
2022-08-28T21:12:39.158Z,18.79
2022-08-28T21:15:11.255Z,18.77
2022-08-28T21:17:41.290Z,18.76
2022-08-28T21:20:15.364Z,18.75
2022-08-28T21:22:43.639Z,18.72
2022-08-28T21:25:13.509Z,18.67
2022-08-28T21:27:43.370Z,18.63
2022-08-28T21:30:16.179Z,18.59
2022-08-28T21:32:44.924Z,18.57
2022-08-28T21:35:14.029Z,18.52
2022-08-28T21:37:43.358Z,18.47
2022-08-28T21:40:14.493Z,18.42
2022-08-28T21:42:43.313Z,18.37
2022-08-28T21:45:12.798Z,18.32
2022-08-28T21:47:43.310Z,18.30
2022-08-28T21:50:12.374Z,18.27
2022-08-28T21:52:40.874Z,18.24
2022-08-28T21:55:13.672Z,18.22
2022-08-28T21:57:43.001Z,18.23
2022-08-28T22:00:37.885Z,18.25
2022-08-28T22:03:06.234Z,18.27
2022-08-28T22:05:35.384Z,18.25
2022-08-28T22:08:04.123Z,18.20
2022-08-28T22:10:32.448Z,18.14
2022-08-28T22:13:00.817Z,18.09
2022-08-28T22:15:29.543Z,18.04
2022-08-28T22:17:58.766Z,17.99
2022-08-28T22:20:27.600Z,17.93
2022-08-28T22:23:11.383Z,17.86
2022-08-28T22:25:42.977Z,17.80
2022-08-28T22:28:11.496Z,17.78
2022-08-28T22:30:40.146Z,17.77
2022-08-28T22:33:08.468Z,17.78
2022-08-28T22:35:38.023Z,17.77
2022-08-28T22:38:06.414Z,17.74
2022-08-28T22:40:34.833Z,17.71
2022-08-28T22:43:03.388Z,17.69
2022-08-28T22:45:31.782Z,17.64
2022-08-28T22:48:01.071Z,17.57
2022-08-28T22:50:29.417Z,17.53
2022-08-28T22:52:57.722Z,17.47
2022-08-28T22:55:26.243Z,17.45
2022-08-28T22:57:54.974Z,17.42
2022-08-28T23:00:27.318Z,17.38
2022-08-28T23:02:58.603Z,17.36
2022-08-28T23:05:29.649Z,17.37
2022-08-28T23:07:58.084Z,17.37
2022-08-28T23:10:48.372Z,17.38
2022-08-28T23:13:15.885Z,17.37
2022-08-28T23:15:44.323Z,17.34
2022-08-28T23:18:12.827Z,17.30
2022-08-28T23:20:42.132Z,17.26
2022-08-28T23:23:11.869Z,17.21
2022-08-28T23:25:40.869Z,17.15
2022-08-28T23:28:09.261Z,17.12
2022-08-28T23:30:39.192Z,17.11
2022-08-28T23:33:08.427Z,17.12
2022-08-28T23:35:37.289Z,17.13
2022-08-28T23:38:06.611Z,17.11
2022-08-28T23:40:37.419Z,17.09
2022-08-28T23:43:05.911Z,17.05
2022-08-28T23:45:34.373Z,17.02
2022-08-28T23:48:02.973Z,17.01
2022-08-28T23:50:34.548Z,17.01
2022-08-28T23:53:04.750Z,17.03
2022-08-28T23:55:33.502Z,17.05
2022-08-28T23:58:01.815Z,17.04
